Time;durP1;ratioP1;P1;durP2;ratioP2;P2;SDS_P1;SDS_P2;PMS_P1;PMS_P2;Temp;Humidity;BMP_temperature;BMP_pressure;BME280_temperature;BME280_humidity;BME280_pressure;Samples;Min_cycle;Max_cycle;Signal;HPM_P1;HPM_P2
2022/07/28 00:01:49;;;;;;;;;;;13.60;99.90;;;;;;5072725;28;19930;-67
2022/07/28 00:04:14;;;;;;;;;;;13.60;99.90;;;;;;5073002;28;19912;-67
2022/07/28 00:06:40;;;;;;;;;;;13.50;99.90;;;;;;5073175;28;19916;-67
2022/07/28 00:09:05;;;;;;;;;;;13.50;99.90;;;;;;5073078;28;19912;-67
2022/07/28 00:11:31;;;;;;;;;;;13.40;99.90;;;;;;5076729;28;19916;-67
2022/07/28 00:13:56;;;;;;;;;;;13.30;99.90;;;;;;5076430;28;19955;-66
2022/07/28 00:16:22;;;;;;;;;;;13.30;99.90;;;;;;5076706;28;19961;-66
2022/07/28 00:18:47;;;;;;;;;;;13.20;99.90;;;;;;5058448;28;19915;-66
2022/07/28 00:21:13;;;;;;;;;;;13.10;99.90;;;;;;5076327;28;19916;-67
2022/07/28 00:23:38;;;;;;;;;;;13.00;99.90;;;;;;5076495;28;20010;-66
2022/07/28 00:26:04;;;;;;;;;;;12.90;99.90;;;;;;5076231;28;19908;-66
2022/07/28 00:28:29;;;;;;;;;;;12.80;99.90;;;;;;5076489;28;19951;-66
2022/07/28 00:30:55;;;;;;;;;;;12.80;99.90;;;;;;5076149;28;19908;-66
2022/07/28 00:33:20;;;;;;;;;;;12.80;99.90;;;;;;5076085;28;20290;-67
2022/07/28 00:35:46;;;;;;;;;;;12.80;99.90;;;;;;5076319;28;19908;-66
2022/07/28 00:38:11;;;;;;;;;;;12.70;99.90;;;;;;5058161;28;19912;-68
2022/07/28 00:43:22;;;;;;;;;;;12.60;99.90;;;;;;5075662;28;19916;-66
2022/07/28 00:45:48;;;;;;;;;;;12.60;99.90;;;;;;5057986;28;20428;-65
2022/07/28 00:48:13;;;;;;;;;;;12.60;99.90;;;;;;5075911;28;19916;-68
2022/07/28 00:50:39;;;;;;;;;;;12.60;99.90;;;;;;5076102;28;19914;-67
2022/07/28 00:53:04;;;;;;;;;;;12.70;99.90;;;;;;5075854;28;20286;-66
2022/07/28 00:55:38;;;;;;;;;;;12.60;99.90;;;;;;5076063;28;20345;-68
2022/07/28 00:58:04;;;;;;;;;;;12.60;99.90;;;;;;5040947;28;19958;-66
2022/07/28 01:00:30;;;;;;;;;;;12.60;99.90;;;;;;5075956;28;19913;-66
2022/07/28 01:02:56;;;;;;;;;;;12.50;99.90;;;;;;5057625;28;20451;-66
2022/07/28 01:05:21;;;;;;;;;;;12.40;99.90;;;;;;5075537;28;20363;-66
2022/07/28 01:07:51;;;;;;;;;;;12.40;99.90;;;;;;5075741;28;19954;-66
2022/07/28 01:10:37;;;;;;;;;;;12.30;99.90;;;;;;5075707;28;20256;-66
2022/07/28 01:13:12;;;;;;;;;;;12.30;99.90;;;;;;5075280;28;20394;-67
2022/07/28 01:15:43;;;;;;;;;;;12.30;99.90;;;;;;5075363;28;19944;-66
2022/07/28 01:18:12;;;;;;;;;;;12.20;99.90;;;;;;5075288;28;19908;-66
2022/07/28 01:20:42;;;;;;;;;;;12.20;99.90;;;;;;5075242;28;19916;-67
2022/07/28 01:23:18;;;;;;;;;;;12.40;99.90;;;;;;5075351;28;20302;-66
2022/07/28 01:25:52;;;;;;;;;;;12.50;99.90;;;;;;5075115;28;19908;-66
2022/07/28 01:28:24;;;;;;;;;;;12.60;99.90;;;;;;5075091;28;20500;-66
2022/07/28 01:30:52;;;;;;;;;;;12.60;99.90;;;;;;5075294;28;20382;-66
2022/07/28 01:33:20;;;;;;;;;;;12.60;99.90;;;;;;5075005;28;19948;-66
2022/07/28 01:35:50;;;;;;;;;;;12.70;99.90;;;;;;5074898;28;20003;-66
2022/07/28 01:38:16;;;;;;;;;;;12.70;99.90;;;;;;5074854;28;19947;-66
2022/07/28 01:40:44;;;;;;;;;;;12.70;99.90;;;;;;5074812;28;19909;-66
2022/07/28 01:43:12;;;;;;;;;;;12.60;99.90;;;;;;5074712;28;19919;-66
2022/07/28 01:45:39;;;;;;;;;;;12.60;99.90;;;;;;5074705;28;19908;-66
2022/07/28 01:48:06;;;;;;;;;;;12.60;99.90;;;;;;5074971;28;20343;-66
2022/07/28 01:50:32;;;;;;;;;;;12.50;99.90;;;;;;5074643;28;19944;-66
2022/07/28 01:52:58;;;;;;;;;;;12.60;99.90;;;;;;5056732;28;19909;-66
2022/07/28 01:55:25;;;;;;;;;;;12.50;99.90;;;;;;5074470;28;19916;-66
2022/07/28 01:57:52;;;;;;;;;;;12.60;99.90;;;;;;5056643;28;19908;-66
2022/07/28 02:00:18;;;;;;;;;;;12.60;99.90;;;;;;5074407;28;19909;-66
2022/07/28 02:02:45;;;;;;;;;;;12.60;99.90;;;;;;5074202;28;19927;-66
2022/07/28 02:05:13;;;;;;;;;;;12.60;99.90;;;;;;5074563;28;19909;-66
2022/07/28 02:07:40;;;;;;;;;;;12.60;99.90;;;;;;5074216;28;19908;-66
2022/07/28 02:10:06;;;;;;;;;;;12.60;99.90;;;;;;5074489;28;20011;-65
2022/07/28 02:12:33;;;;;;;;;;;12.60;99.90;;;;;;5074158;28;19915;-66
2022/07/28 02:14:59;;;;;;;;;;;12.60;99.90;;;;;;5074126;28;19959;-67
2022/07/28 02:17:26;;;;;;;;;;;12.60;99.90;;;;;;5074304;28;19912;-66
2022/07/28 02:19:52;;;;;;;;;;;12.60;99.90;;;;;;5074315;28;19947;-66
2022/07/28 02:22:19;;;;;;;;;;;12.60;99.90;;;;;;5056368;28;19913;-66
2022/07/28 02:24:45;;;;;;;;;;;12.60;99.90;;;;;;5074013;28;19918;-67
2022/07/28 02:27:15;;;;;;;;;;;12.60;99.90;;;;;;5073982;28;20386;-67
2022/07/28 02:29:43;;;;;;;;;;;12.50;99.90;;;;;;5074191;28;20314;-66
2022/07/28 02:32:15;;;;;;;;;;;12.50;99.90;;;;;;5073539;28;19931;-66
2022/07/28 02:34:41;;;;;;;;;;;12.50;99.90;;;;;;5073848;28;19908;-66
2022/07/28 02:37:08;;;;;;;;;;;12.50;99.90;;;;;;5074092;28;19996;-66
2022/07/28 02:39:39;;;;;;;;;;;12.50;99.90;;;;;;5073823;28;19931;-66
2022/07/28 02:42:08;;;;;;;;;;;12.50;99.90;;;;;;5073977;28;20358;-66
2022/07/28 02:44:38;;;;;;;;;;;12.50;99.90;;;;;;5056012;28;19909;-66
2022/07/28 02:47:05;;;;;;;;;;;12.50;99.90;;;;;;5074030;28;19908;-66
2022/07/28 02:49:32;;;;;;;;;;;12.50;99.90;;;;;;5073677;28;19908;-66
2022/07/28 02:51:59;;;;;;;;;;;12.50;99.90;;;;;;5073665;28;19962;-66
2022/07/28 02:54:26;;;;;;;;;;;12.40;99.90;;;;;;5073662;28;20007;-66
2022/07/28 02:56:52;;;;;;;;;;;12.50;99.90;;;;;;5073857;28;19925;-66
2022/07/28 02:59:18;;;;;;;;;;;12.50;99.90;;;;;;5073877;28;20332;-66
2022/07/28 03:01:44;;;;;;;;;;;12.50;99.90;;;;;;5073282;28;19923;-66
2022/07/28 03:04:10;;;;;;;;;;;12.50;99.90;;;;;;5073546;28;20058;-67
2022/07/28 03:06:36;;;;;;;;;;;12.50;99.90;;;;;;5073786;28;19909;-66
2022/07/28 03:09:02;;;;;;;;;;;12.40;99.90;;;;;;5073503;28;19915;-66
2022/07/28 03:11:28;;;;;;;;;;;12.40;99.90;;;;;;5073696;28;19958;-66
2022/07/28 03:13:53;;;;;;;;;;;12.30;99.90;;;;;;5073721;28;20339;-66
2022/07/28 03:16:19;;;;;;;;;;;12.40;99.90;;;;;;5073663;28;20379;-66
2022/07/28 03:18:44;;;;;;;;;;;12.40;99.90;;;;;;5073391;28;20370;-66
2022/07/28 03:21:10;;;;;;;;;;;12.40;99.90;;;;;;5073652;28;19947;-66
2022/07/28 03:23:38;;;;;;;;;;;12.40;99.90;;;;;;5073558;28;19912;-66
2022/07/28 03:26:06;;;;;;;;;;;12.50;99.90;;;;;;5073593;28;19944;-66
2022/07/28 03:28:32;;;;;;;;;;;12.40;99.90;;;;;;5073293;28;19926;-67
2022/07/28 03:31:00;;;;;;;;;;;12.40;99.90;;;;;;5073504;28;19912;-66
2022/07/28 03:33:26;;;;;;;;;;;12.40;99.90;;;;;;5073532;28;19958;-66
2022/07/28 03:35:52;;;;;;;;;;;12.40;99.90;;;;;;5073508;28;20363;-66
2022/07/28 03:38:19;;;;;;;;;;;12.30;99.90;;;;;;5073135;28;20435;-66
2022/07/28 03:40:46;;;;;;;;;;;12.30;99.90;;;;;;5073437;28;20286;-66
2022/07/28 03:43:13;;;;;;;;;;;12.30;99.90;;;;;;5073140;28;20378;-66
2022/07/28 03:45:40;;;;;;;;;;;12.20;99.90;;;;;;5075867;28;19908;-66
2022/07/28 03:48:05;;;;;;;;;;;12.10;99.90;;;;;;5059024;28;20003;-66
2022/07/28 03:50:32;;;;;;;;;;;12.10;99.90;;;;;;5077162;28;20039;-66
2022/07/28 03:52:58;;;;;;;;;;;12.00;99.90;;;;;;5077121;28;20375;-66
2022/07/28 03:55:24;;;;;;;;;;;12.10;99.90;;;;;;5077078;28;19909;-66
2022/07/28 03:57:50;;;;;;;;;;;12.10;99.90;;;;;;5077045;28;20393;-66
2022/07/28 04:00:15;;;;;;;;;;;12.10;99.90;;;;;;5077031;28;19909;-66
2022/07/28 04:02:43;;;;;;;;;;;12.00;99.90;;;;;;5076544;28;19920;-67
2022/07/28 04:05:10;;;;;;;;;;;11.90;99.90;;;;;;5076601;28;19909;-67
2022/07/28 04:07:36;;;;;;;;;;;11.80;99.90;;;;;;5076892;28;20329;-66
2022/07/28 04:10:01;;;;;;;;;;;11.70;99.90;;;;;;5076470;28;19954;-66
2022/07/28 04:12:27;;;;;;;;;;;11.70;99.90;;;;;;5076525;28;19908;-66
2022/07/28 04:14:52;;;;;;;;;;;11.60;99.90;;;;;;5076507;28;19909;-66
2022/07/28 04:17:18;;;;;;;;;;;11.50;99.90;;;;;;5076401;28;20294;-66
2022/07/28 04:19:43;;;;;;;;;;;11.60;99.90;;;;;;5076667;28;20033;-66
2022/07/28 04:22:09;;;;;;;;;;;11.60;99.90;;;;;;5076227;28;20325;-67
2022/07/28 04:24:34;;;;;;;;;;;11.70;99.90;;;;;;5058437;28;20458;-66
2022/07/28 04:27:00;;;;;;;;;;;11.70;99.90;;;;;;5076263;28;19916;-66
2022/07/28 04:29:25;;;;;;;;;;;11.80;99.90;;;;;;5076248;28;19999;-66
2022/07/28 04:31:51;;;;;;;;;;;11.80;99.90;;;;;;5076190;28;19957;-66
2022/07/28 04:34:16;;;;;;;;;;;11.90;99.90;;;;;;5058318;28;19916;-66
2022/07/28 04:36:42;;;;;;;;;;;12.00;99.90;;;;;;5076160;28;19916;-67
2022/07/28 04:39:09;;;;;;;;;;;12.10;99.90;;;;;;5076091;28;19909;-67
2022/07/28 04:41:35;;;;;;;;;;;12.10;99.90;;;;;;5076276;28;19958;-67
2022/07/28 04:44:00;;;;;;;;;;;12.30;99.90;;;;;;5075892;28;19916;-67
2022/07/28 04:46:26;;;;;;;;;;;12.70;99.90;;;;;;5075873;28;19944;-66
2022/07/28 04:48:51;;;;;;;;;;;13.50;99.90;;;;;;5075873;28;19962;-66
2022/07/28 04:51:17;;;;;;;;;;;14.60;99.90;;;;;;5075818;28;20289;-66
2022/07/28 04:53:42;;;;;;;;;;;16.20;99.90;;;;;;5075793;28;19913;-66
2022/07/28 04:56:08;;;;;;;;;;;17.20;99.90;;;;;;5075646;28;19909;-66
2022/07/28 04:58:33;;;;;;;;;;;18.40;99.90;;;;;;5075760;28;19909;-66
2022/07/28 05:00:59;;;;;;;;;;;19.10;99.90;;;;;;5075932;28;19940;-66
2022/07/28 05:03:24;;;;;;;;;;;18.90;99.90;;;;;;5075400;28;19977;-66
2022/07/28 05:05:50;;;;;;;;;;;18.50;99.90;;;;;;5075545;28;19908;-66
2022/07/28 05:08:15;;;;;;;;;;;18.10;99.90;;;;;;5075802;28;19908;-66
2022/07/28 05:10:41;;;;;;;;;;;18.10;99.90;;;;;;5075455;28;19908;-66
2022/07/28 05:13:06;;;;;;;;;;;17.40;99.90;;;;;;5075709;28;19908;-66
2022/07/28 05:15:43;;;;;;;;;;;17.20;99.90;;;;;;5075641;28;20412;-66
2022/07/28 05:18:09;;;;;;;;;;;16.70;99.90;;;;;;5075531;28;19908;-66
2022/07/28 05:20:34;;;;;;;;;;;16.50;99.90;;;;;;5075327;28;20451;-66
2022/07/28 05:23:00;;;;;;;;;;;16.20;99.90;;;;;;5075151;28;19912;-66
2022/07/28 05:25:25;;;;;;;;;;;15.90;99.90;;;;;;5075125;28;19908;-66
2022/07/28 05:27:51;;;;;;;;;;;15.80;99.90;;;;;;5075358;28;20011;-66
2022/07/28 05:30:17;;;;;;;;;;;15.80;99.90;;;;;;5075069;28;20341;-66
2022/07/28 05:32:44;;;;;;;;;;;15.90;99.90;;;;;;5075249;28;20276;-65
2022/07/28 05:35:10;;;;;;;;;;;15.80;99.90;;;;;;5075205;28;20381;-65
2022/07/28 05:37:36;;;;;;;;;;;15.90;99.90;;;;;;5074930;28;19908;-66
2022/07/28 05:40:03;;;;;;;;;;;16.00;99.90;;;;;;5056997;28;19984;-66
2022/07/28 05:42:34;;;;;;;;;;;16.10;99.90;;;;;;5074744;28;20455;-66
2022/07/28 05:45:00;;;;;;;;;;;16.90;99.90;;;;;;5075029;28;19958;-66
2022/07/28 05:47:26;;;;;;;;;;;17.50;99.90;;;;;;5074597;28;19915;-66
2022/07/28 05:49:51;;;;;;;;;;;18.30;99.90;;;;;;5074924;28;19909;-66
2022/07/28 05:52:17;;;;;;;;;;;19.70;99.90;;;;;;5074830;28;19912;-66
2022/07/28 05:54:42;;;;;;;;;;;20.50;99.90;;;;;;5074584;28;20367;-66
2022/07/28 05:57:08;;;;;;;;;;;21.50;99.90;;;;;;5074437;28;19909;-66
2022/07/28 05:59:33;;;;;;;;;;;22.60;98.40;;;;;;5074704;28;19908;-66
2022/07/28 06:02:00;;;;;;;;;;;22.80;95.90;;;;;;5074129;28;19920;-66
2022/07/28 06:04:25;;;;;;;;;;;22.90;95.50;;;;;;5078142;28;20355;-66
2022/07/28 06:06:51;;;;;;;;;;;22.20;96.10;;;;;;5073873;28;19919;-66
2022/07/28 06:09:16;;;;;;;;;;;22.70;94.20;;;;;;5087565;28;19908;-66
2022/07/28 06:11:42;;;;;;;;;;;22.40;95.30;;;;;;5089948;28;20313;-66
2022/07/28 06:14:07;;;;;;;;;;;23.30;94.50;;;;;;5074036;28;19912;-66
2022/07/28 06:16:33;;;;;;;;;;;23.20;93.30;;;;;;5076472;28;20474;-66
2022/07/28 06:18:58;;;;;;;;;;;21.90;95.10;;;;;;5057715;28;19920;-66
2022/07/28 06:21:24;;;;;;;;;;;20.70;97.90;;;;;;5077713;28;19919;-66
2022/07/28 06:23:49;;;;;;;;;;;20.50;99.00;;;;;;5072059;28;20278;-66
2022/07/28 06:26:15;;;;;;;;;;;21.20;98.60;;;;;;5072614;28;19949;-66
2022/07/28 06:28:40;;;;;;;;;;;21.60;97.40;;;;;;5054704;28;19915;-66
2022/07/28 06:31:06;;;;;;;;;;;22.20;96.40;;;;;;5072732;28;19913;-66
2022/07/28 06:33:31;;;;;;;;;;;22.40;95.40;;;;;;5072822;28;19908;-66
2022/07/28 06:35:57;;;;;;;;;;;22.40;94.90;;;;;;5054476;28;19916;-66
2022/07/28 06:38:22;;;;;;;;;;;23.10;93.70;;;;;;5072773;28;19908;-66
2022/07/28 06:40:48;;;;;;;;;;;24.10;92.50;;;;;;5070761;28;20046;-66
2022/07/28 06:43:13;;;;;;;;;;;23.50;92.50;;;;;;5070595;28;19923;-66
2022/07/28 06:45:39;;;;;;;;;;;22.90;92.40;;;;;;5038217;28;19971;-66
2022/07/28 06:48:06;;;;;;;;;;;22.10;93.90;;;;;;5071687;28;19963;-66
2022/07/28 06:50:32;;;;;;;;;;;22.10;94.00;;;;;;5073416;28;19909;-66
2022/07/28 06:52:57;;;;;;;;;;;22.40;93.30;;;;;;5072477;28;20336;-66
2022/07/28 06:55:23;;;;;;;;;;;23.70;92.60;;;;;;5073774;28;19908;-66
2022/07/28 06:57:48;;;;;;;;;;;24.50;90.20;;;;;;5071447;28;20046;-66
2022/07/28 07:00:14;;;;;;;;;;;23.90;89.40;;;;;;5073252;28;19909;-66
2022/07/28 07:02:40;;;;;;;;;;;24.10;89.40;;;;;;5055218;28;19970;-66
2022/07/28 07:05:06;;;;;;;;;;;24.40;87.70;;;;;;5073686;28;19909;-67
2022/07/28 07:07:31;;;;;;;;;;;24.30;87.80;;;;;;5072657;28;19913;-67
2022/07/28 07:09:57;;;;;;;;;;;24.50;84.00;;;;;;5054916;28;20003;-67
2022/07/28 07:12:22;;;;;;;;;;;25.20;86.40;;;;;;5068951;28;19912;-67
2022/07/28 07:14:48;;;;;;;;;;;25.30;83.40;;;;;;5070171;28;19913;-66
2022/07/28 07:17:13;;;;;;;;;;;25.30;83.40;;;;;;5068042;28;20283;-66
2022/07/28 07:19:39;;;;;;;;;;;25.40;81.30;;;;;;5074977;28;19952;-66
2022/07/28 07:22:04;;;;;;;;;;;25.60;81.70;;;;;;5076980;28;20294;-67
2022/07/28 07:24:30;;;;;;;;;;;25.00;79.40;;;;;;5076183;28;19920;-66
2022/07/28 07:26:55;;;;;;;;;;;24.40;81.60;;;;;;5074216;28;19958;-66
2022/07/28 07:29:21;;;;;;;;;;;25.10;81.00;;;;;;5053919;28;20302;-66
2022/07/28 07:31:47;;;;;;;;;;;25.10;81.40;;;;;;5073392;28;20015;-66
2022/07/28 07:34:12;;;;;;;;;;;24.60;81.00;;;;;;5044093;28;19992;-66
2022/07/28 07:36:38;;;;;;;;;;;24.60;80.70;;;;;;5068077;28;19924;-66
2022/07/28 07:39:03;;;;;;;;;;;25.00;81.00;;;;;;5075868;28;19967;-66
2022/07/28 07:41:29;;;;;;;;;;;24.10;82.90;;;;;;5076358;28;19912;-66
2022/07/28 07:43:54;;;;;;;;;;;24.00;82.50;;;;;;5076033;28;20015;-66
2022/07/28 07:46:20;;;;;;;;;;;24.20;82.60;;;;;;5076064;28;19919;-66
2022/07/28 07:48:45;;;;;;;;;;;25.40;79.80;;;;;;5073814;28;19912;-66
2022/07/28 07:51:11;;;;;;;;;;;26.60;77.40;;;;;;5070579;28;19919;-66
2022/07/28 07:53:36;;;;;;;;;;;27.00;73.30;;;;;;5074796;28;20062;-67
2022/07/28 07:56:02;;;;;;;;;;;26.10;76.60;;;;;;5070201;28;20330;-65
2022/07/28 07:58:27;;;;;;;;;;;26.20;75.00;;;;;;5073097;28;19927;-66
2022/07/28 08:00:53;;;;;;;;;;;26.80;74.70;;;;;;5073144;28;19912;-66
2022/07/28 08:03:18;;;;;;;;;;;27.50;73.40;;;;;;5054655;28;19924;-66
2022/07/28 08:05:44;;;;;;;;;;;28.60;69.50;;;;;;5076463;28;20392;-66
2022/07/28 08:08:09;;;;;;;;;;;27.30;70.50;;;;;;5068804;28;20008;-66
2022/07/28 08:10:35;;;;;;;;;;;27.80;70.40;;;;;;5074303;28;19933;-66
2022/07/28 08:13:02;;;;;;;;;;;28.00;67.70;;;;;;5076832;28;20378;-66
2022/07/28 08:15:27;;;;;;;;;;;27.50;68.20;;;;;;5076679;28;19909;-66
2022/07/28 08:17:53;;;;;;;;;;;27.80;67.30;;;;;;5076042;28;20293;-66
2022/07/28 08:20:18;;;;;;;;;;;27.40;67.60;;;;;;5076509;28;19912;-66
2022/07/28 08:22:45;;;;;;;;;;;27.30;68.20;;;;;;5079539;28;20370;-67
2022/07/28 08:25:11;;;;;;;;;;;27.30;67.30;;;;;;5078485;28;20003;-66
2022/07/28 08:27:36;;;;;;;;;;;27.30;67.40;;;;;;5076926;28;19951;-66
2022/07/28 08:30:03;;;;;;;;;;;26.90;67.90;;;;;;5073885;28;21340;-66
2022/07/28 08:32:28;;;;;;;;;;;26.80;68.50;;;;;;5076263;28;20374;-66
2022/07/28 08:34:54;;;;;;;;;;;28.00;69.20;;;;;;5057268;28;19912;-66
2022/07/28 08:37:19;;;;;;;;;;;28.40;65.60;;;;;;5075963;28;19991;-66
2022/07/28 08:39:45;;;;;;;;;;;28.20;66.80;;;;;;5074961;28;19944;-67
2022/07/28 08:42:13;;;;;;;;;;;27.90;66.30;;;;;;5075938;28;19908;-66
2022/07/28 08:44:46;;;;;;;;;;;27.60;65.20;;;;;;5074899;28;19913;-66
2022/07/28 08:47:11;;;;;;;;;;;27.90;66.80;;;;;;5075903;28;19908;-67
2022/07/28 08:49:40;;;;;;;;;;;28.00;64.00;;;;;;5075426;28;20320;-66
2022/07/28 08:52:08;;;;;;;;;;;27.10;66.00;;;;;;5071392;28;19920;-66
2022/07/28 08:54:34;;;;;;;;;;;27.10;66.20;;;;;;5072500;28;20024;-66
2022/07/28 08:56:59;;;;;;;;;;;27.30;66.50;;;;;;5073854;28;20014;-66
2022/07/28 08:59:26;;;;;;;;;;;26.90;66.80;;;;;;5050442;28;19921;-66
2022/07/28 09:01:52;;;;;;;;;;;25.90;69.60;;;;;;5073785;28;19921;-66
2022/07/28 09:04:18;;;;;;;;;;;25.30;71.00;;;;;;5069231;28;20580;-66
2022/07/28 09:06:45;;;;;;;;;;;24.70;73.30;;;;;;5057212;28;20021;-68
2022/07/28 09:09:10;;;;;;;;;;;26.40;71.10;;;;;;5075270;28;19935;-68
2022/07/28 09:11:38;;;;;;;;;;;27.00;67.10;;;;;;5075437;28;20355;-68
2022/07/28 09:14:07;;;;;;;;;;;27.80;68.30;;;;;;5071954;28;19920;-68
2022/07/28 09:16:32;;;;;;;;;;;27.60;66.20;;;;;;5072864;28;19912;-67
2022/07/28 09:18:58;;;;;;;;;;;26.80;68.00;;;;;;5075077;28;19909;-67
2022/07/28 09:21:24;;;;;;;;;;;26.40;68.50;;;;;;5075035;28;19909;-67
2022/07/28 09:23:49;;;;;;;;;;;27.10;66.50;;;;;;5075236;28;19919;-69
2022/07/28 09:26:16;;;;;;;;;;;27.90;67.00;;;;;;5075294;28;20313;-67
2022/07/28 09:28:50;;;;;;;;;;;27.80;64.10;;;;;;5069318;28;19959;-68
2022/07/28 09:31:16;;;;;;;;;;;27.90;64.60;;;;;;5055198;28;19962;-68
2022/07/28 09:33:52;;;;;;;;;;;27.40;65.30;;;;;;5058309;28;19912;-68
2022/07/28 09:36:17;;;;;;;;;;;27.60;65.50;;;;;;5059189;28;20018;-68
2022/07/28 09:38:43;;;;;;;;;;;27.50;67.00;;;;;;5071161;28;19947;-68
2022/07/28 09:41:09;;;;;;;;;;;27.10;65.60;;;;;;5073737;28;19912;-68
2022/07/28 09:43:36;;;;;;;;;;;27.60;66.40;;;;;;5072983;28;20389;-68
2022/07/28 09:46:03;;;;;;;;;;;27.10;66.50;;;;;;5058528;28;19917;-68
2022/07/28 09:48:29;;;;;;;;;;;27.70;65.20;;;;;;5055932;28;20355;-68
2022/07/28 09:51:07;;;;;;;;;;;27.40;64.70;;;;;;5056500;28;19953;-68
2022/07/28 09:53:33;;;;;;;;;;;28.10;63.20;;;;;;5067580;28;19912;-68
2022/07/28 09:56:00;;;;;;;;;;;28.40;62.70;;;;;;5073117;28;19916;-68
2022/07/28 09:58:26;;;;;;;;;;;27.90;63.60;;;;;;5070041;28;20382;-68
2022/07/28 10:01:11;;;;;;;;;;;27.80;63.20;;;;;;5073342;28;19908;-68
2022/07/28 10:03:39;;;;;;;;;;;27.40;63.50;;;;;;5055384;28;19921;-68
2022/07/28 10:06:09;;;;;;;;;;;27.60;64.20;;;;;;5073829;28;19920;-68
2022/07/28 10:08:39;;;;;;;;;;;27.50;65.00;;;;;;5055008;28;19912;-68
2022/07/28 10:11:05;;;;;;;;;;;27.90;63.50;;;;;;5066992;28;19912;-68
2022/07/28 10:13:30;;;;;;;;;;;28.10;61.50;;;;;;5071360;28;19920;-68
2022/07/28 10:16:11;;;;;;;;;;;28.30;62.20;;;;;;5074128;28;19908;-68
2022/07/28 10:18:38;;;;;;;;;;;29.00;62.40;;;;;;5073612;28;19920;-68
2022/07/28 10:21:06;;;;;;;;;;;29.10;59.70;;;;;;5055965;28;19908;-68
2022/07/28 10:23:32;;;;;;;;;;;28.70;60.70;;;;;;5071454;28;19916;-68
2022/07/28 10:25:59;;;;;;;;;;;28.20;61.50;;;;;;5067935;28;20362;-68
2022/07/28 10:28:25;;;;;;;;;;;27.90;61.70;;;;;;5071758;28;19920;-68
2022/07/28 10:30:54;;;;;;;;;;;28.20;61.50;;;;;;5053261;28;19908;-68
2022/07/28 10:33:21;;;;;;;;;;;27.70;61.20;;;;;;5063746;28;19923;-68
2022/07/28 10:35:47;;;;;;;;;;;28.30;62.30;;;;;;5070249;28;19916;-68
2022/07/28 10:38:14;;;;;;;;;;;27.90;61.50;;;;;;5071836;28;20057;-68
2022/07/28 10:40:41;;;;;;;;;;;28.10;62.80;;;;;;5065052;28;20373;-68
2022/07/28 10:43:06;;;;;;;;;;;28.50;61.60;;;;;;5055514;28;19919;-68
2022/07/28 10:45:33;;;;;;;;;;;28.70;61.90;;;;;;5071991;28;19913;-68
2022/07/28 10:47:59;;;;;;;;;;;28.50;60.90;;;;;;5070520;28;19919;-70
2022/07/28 10:50:25;;;;;;;;;;;29.10;61.00;;;;;;5088682;28;19999;-68
2022/07/28 10:52:51;;;;;;;;;;;28.80;60.00;;;;;;5063364;28;19919;-67
2022/07/28 10:55:37;;;;;;;;;;;28.20;60.40;;;;;;5054150;28;19912;-67
2022/07/28 10:58:22;;;;;;;;;;;26.90;62.70;;;;;;5067983;28;19912;-68
2022/07/28 11:00:49;;;;;;;;;;;27.20;63.60;;;;;;5061296;28;19912;-67
2022/07/28 11:03:34;;;;;;;;;;;26.50;65.40;;;;;;5070729;28;20449;-68
2022/07/28 11:06:21;;;;;;;;;;;26.10;65.90;;;;;;5069672;28;21241;-68
2022/07/28 11:08:47;;;;;;;;;;;26.20;66.30;;;;;;5064606;28;20387;-68
2022/07/28 11:11:12;;;;;;;;;;;26.10;67.10;;;;;;5053332;28;19955;-68
2022/07/28 11:13:38;;;;;;;;;;;25.70;67.10;;;;;;5057186;28;20375;-67
2022/07/28 11:16:20;;;;;;;;;;;25.40;68.10;;;;;;5053068;28;19952;-68
2022/07/28 11:21:59;;;;;;;;;;;26.00;66.90;;;;;;5089990;27;20267;-69
2022/07/28 11:24:24;;;;;;;;;;;25.80;67.50;;;;;;5070634;28;19919;-69
2022/07/28 11:26:53;;;;;;;;;;;25.40;65.70;;;;;;5070827;28;20349;-69
2022/07/28 11:29:19;;;;;;;;;;;25.10;68.20;;;;;;5123216;28;20370;-69
2022/07/28 11:34:24;;;;;;;;;;;25.40;66.40;;;;;;5080493;28;19978;-69
2022/07/28 11:37:01;;;;;;;;;;;25.40;67.40;;;;;;5073147;28;19912;-68
2022/07/28 11:39:28;;;;;;;;;;;25.60;67.80;;;;;;5078789;28;19909;-69
2022/07/28 11:41:53;;;;;;;;;;;25.60;68.80;;;;;;5082552;28;19922;-68
2022/07/28 11:44:27;;;;;;;;;;;26.00;68.90;;;;;;5068614;28;20007;-68
2022/07/28 11:46:53;;;;;;;;;;;25.70;67.30;;;;;;5090244;28;19912;-68
2022/07/28 11:49:19;;;;;;;;;;;25.30;65.80;;;;;;5090023;28;19953;-68
2022/07/28 11:52:05;;;;;;;;;;;25.50;68.40;;;;;;5090999;28;19912;-67
2022/07/28 11:54:33;;;;;;;;;;;26.00;66.20;;;;;;5060432;28;20332;-66
2022/07/28 11:56:58;;;;;;;;;;;26.20;66.90;;;;;;5079519;28;20003;-66
2022/07/28 11:59:24;;;;;;;;;;;26.20;67.50;;;;;;5082368;28;19954;-67
2022/07/28 12:01:50;;;;;;;;;;;26.10;67.20;;;;;;5072441;28;20267;-67
2022/07/28 12:04:15;;;;;;;;;;;25.90;66.40;;;;;;5078611;28;19923;-66
2022/07/28 12:06:41;;;;;;;;;;;25.70;67.90;;;;;;5090420;28;19913;-66
2022/07/28 12:09:08;;;;;;;;;;;25.80;66.90;;;;;;5082343;28;19916;-68
2022/07/28 12:11:34;;;;;;;;;;;26.20;68.50;;;;;;5071208;28;19956;-65
2022/07/28 12:14:01;;;;;;;;;;;26.20;68.10;;;;;;5074975;28;20420;-68
2022/07/28 12:16:28;;;;;;;;;;;25.80;66.00;;;;;;5089162;28;20305;-68
2022/07/28 12:18:53;;;;;;;;;;;25.80;66.30;;;;;;5070205;28;20355;-66
2022/07/28 12:21:35;;;;;;;;;;;26.10;65.50;;;;;;5077827;28;19956;-67
2022/07/28 12:24:00;;;;;;;;;;;26.60;65.70;;;;;;5090269;28;19913;-67
2022/07/28 12:26:30;;;;;;;;;;;26.50;64.90;;;;;;5082771;28;19916;-68
2022/07/28 12:28:55;;;;;;;;;;;26.00;65.70;;;;;;5070000;28;19958;-65
2022/07/28 12:31:24;;;;;;;;;;;26.00;67.30;;;;;;5076058;28;20369;-66
2022/07/28 12:33:51;;;;;;;;;;;26.30;67.70;;;;;;5086335;28;19921;-67
2022/07/28 12:36:18;;;;;;;;;;;26.60;66.00;;;;;;5070870;28;19918;-65
2022/07/28 12:38:44;;;;;;;;;;;26.10;66.50;;;;;;5090118;28;19919;-65
2022/07/28 12:41:14;;;;;;;;;;;26.20;68.00;;;;;;5089204;28;19912;-65
2022/07/28 12:43:47;;;;;;;;;;;26.20;67.20;;;;;;5087938;28;19908;-65
2022/07/28 12:46:18;;;;;;;;;;;26.00;67.20;;;;;;5075156;28;19965;-65
2022/07/28 12:48:43;;;;;;;;;;;25.90;66.60;;;;;;5075384;28;20417;-65
2022/07/28 12:51:28;;;;;;;;;;;26.40;67.10;;;;;;5056394;28;19912;-65
2022/07/28 12:53:54;;;;;;;;;;;26.10;66.60;;;;;;5068446;28;19920;-65
2022/07/28 12:56:20;;;;;;;;;;;26.30;66.00;;;;;;5038281;28;19909;-65
2022/07/28 12:58:46;;;;;;;;;;;26.20;65.10;;;;;;5063358;28;20313;-65
2022/07/28 13:01:11;;;;;;;;;;;26.00;66.30;;;;;;5076183;28;19908;-65
2022/07/28 13:03:44;;;;;;;;;;;26.40;67.10;;;;;;5071483;28;19970;-65
2022/07/28 13:06:11;;;;;;;;;;;25.90;66.20;;;;;;5075942;28;20408;-65
2022/07/28 13:08:38;;;;;;;;;;;26.30;68.20;;;;;;5071835;28;19920;-65
2022/07/28 13:11:04;;;;;;;;;;;26.50;65.80;;;;;;5076022;28;19951;-65
2022/07/28 13:13:29;;;;;;;;;;;26.50;64.50;;;;;;5071784;28;19966;-65
2022/07/28 13:16:15;;;;;;;;;;;26.10;65.40;;;;;;5037431;28;19908;-66
2022/07/28 13:18:42;;;;;;;;;;;26.40;65.60;;;;;;5070592;28;20358;-66
2022/07/28 13:21:07;;;;;;;;;;;26.20;66.50;;;;;;5048085;28;19916;-66
2022/07/28 13:23:33;;;;;;;;;;;26.20;66.90;;;;;;5070300;28;20379;-66
2022/07/28 13:25:58;;;;;;;;;;;26.20;67.10;;;;;;5069602;28;19981;-66
2022/07/28 13:28:26;;;;;;;;;;;26.20;66.50;;;;;;5068762;28;19912;-66
2022/07/28 13:30:52;;;;;;;;;;;26.40;66.90;;;;;;5074548;28;20298;-66
2022/07/28 13:33:17;;;;;;;;;;;26.70;67.30;;;;;;5056464;28;19920;-66
2022/07/28 13:35:43;;;;;;;;;;;26.50;65.10;;;;;;5070955;28;19920;-66
2022/07/28 13:38:09;;;;;;;;;;;26.40;65.70;;;;;;5056595;28;19916;-66
2022/07/28 13:40:35;;;;;;;;;;;26.00;66.70;;;;;;5060969;28;19921;-66
2022/07/28 13:43:00;;;;;;;;;;;25.70;67.50;;;;;;5073610;28;19916;-66
2022/07/28 13:45:26;;;;;;;;;;;26.00;67.20;;;;;;5070396;28;19913;-65
2022/07/28 13:47:51;;;;;;;;;;;26.20;65.70;;;;;;5074083;28;19938;-66
2022/07/28 13:50:16;;;;;;;;;;;26.20;67.10;;;;;;5075186;28;19916;-66
2022/07/28 13:52:42;;;;;;;;;;;26.20;66.30;;;;;;5074198;28;19920;-66
2022/07/28 13:55:08;;;;;;;;;;;26.00;66.70;;;;;;5072960;28;20310;-66
2022/07/28 13:57:33;;;;;;;;;;;25.90;67.30;;;;;;5063232;28;19923;-65
2022/07/28 13:59:59;;;;;;;;;;;26.00;66.30;;;;;;5071041;28;19912;-66
2022/07/28 14:02:24;;;;;;;;;;;26.10;66.80;;;;;;5074129;28;20286;-65
2022/07/28 14:04:50;;;;;;;;;;;26.20;68.10;;;;;;5074672;28;20294;-66
2022/07/28 14:07:15;;;;;;;;;;;26.30;66.30;;;;;;5072161;28;19919;-66
2022/07/28 14:09:41;;;;;;;;;;;26.20;66.20;;;;;;5074880;28;19908;-65
2022/07/28 14:12:06;;;;;;;;;;;26.00;66.40;;;;;;5059737;28;20435;-65
2022/07/28 14:14:33;;;;;;;;;;;25.60;67.60;;;;;;5070155;28;19912;-66
2022/07/28 14:16:58;;;;;;;;;;;25.70;66.90;;;;;;5074383;28;19940;-65
2022/07/28 14:19:25;;;;;;;;;;;26.10;66.90;;;;;;5071974;28;19951;-65
2022/07/28 14:21:51;;;;;;;;;;;26.20;67.50;;;;;;5046089;28;19916;-65
2022/07/28 14:24:17;;;;;;;;;;;26.00;66.90;;;;;;5073359;28;19913;-66